Terminal Aerodrome Forecast
Issued by NWS Sterling, VA

Current Version | Previous Version | Graphics & Text | Print | Product List | Glossary On
Versions: 1 2 3 4 5 6 7 8 9 10 11 12 13 14 15 16 17 18 19 20 21 22 23 24 25 26
000
FTUS41 KLWX 230500 RRA
TAFIAD
TAF
KIAD 230541Z 2306/2412 36006KT P6SM FEW040 BKN200
     FM231700 17005KT P6SM SCT200
     FM232200 16006KT 6SM -RA SCT025 OVC045
     FM240200 13004KT 4SM -SNPL BR SCT009 OVC030
     FM240400 VRB03KT 2SM -SN BR BKN003 OVC020
     FM240800 03004KT 4SM -FZRAPL BR BKN003 OVC008
     FM241100 36006KT 5SM -SNPL BR SCT006 OVC010=

USA.gov is the U.S. government's official web portal to all federal, state and local government web resources and services.